FAPI weather

Pietersburg Municipal Airport
Polokwane, Limpopo, South Africa

Public forecast

Using degrees Celsius for public forecast. Weather courtesy of forecast.io.

METAR (pilot weather report)

Closest report is Polokwane International Airport, 5.1 nm (9.4 km) NNW. Retrieved 2019/05/24 18:00 UTC (20 minutes ago):

FAPP 241800Z 11003KT CAVOK 15/10 Q1029 NOSIG

TAF (pilot weather forecast)

Forecast is more than 12 hours old.

Closest forecast is Polokwane International Airport, 5.1 nm (9.4 km) NNW. Retrieved 2017/06/05 04:55 UTC (2 years ago):

TAF FAPP 050300Z 0504/0515 16005KT CAVOK BECMG 0508/0510 06008KT TX21/0513ZTN08/0504Z